Time;durP1;ratioP1;P1;durP2;ratioP2;P2;SDS_P1;SDS_P2;PMS_P1;PMS_P2;Temp;Humidity;BMP_temperature;BMP_pressure;BME280_temperature;BME280_humidity;BME280_pressure;Samples;Min_cycle;Max_cycle;Signal;HPM_P1;HPM_P2
2021/10/23 00:01:26;;;;;;;7.95;3.15;;;8.70;67.30;;;;;;5071683;28;20227;-64
2021/10/23 00:03:53;;;;;;;12.43;8.38;;;8.80;67.30;;;;;;5070813;28;20213;-63
2021/10/23 00:06:20;;;;;;;7.00;3.95;;;8.80;67.20;;;;;;5071503;28;20201;-64
2021/10/23 00:08:47;;;;;;;10.25;3.10;;;8.80;66.40;;;;;;5071304;28;20221;-65
2021/10/23 00:11:14;;;;;;;4.72;3.15;;;8.80;66.10;;;;;;5075463;28;20260;-64
2021/10/23 00:13:41;;;;;;;7.65;6.60;;;8.80;66.10;;;;;;5075681;28;20186;-65
2021/10/23 00:16:09;;;;;;;5.88;3.05;;;8.80;65.90;;;;;;5075852;28;20285;-64
2021/10/23 00:18:38;;;;;;;8.80;3.40;;;8.80;65.20;;;;;;5075297;28;20644;-65
2021/10/23 00:21:08;;;;;;;8.35;3.35;;;8.80;65.40;;;;;;5074786;28;20189;-65
2021/10/23 00:23:35;;;;;;;4.97;2.75;;;8.90;64.70;;;;;;5075089;28;20218;-65
2021/10/23 00:26:03;;;;;;;8.77;3.50;;;8.90;65.20;;;;;;5075339;28;20192;-64
2021/10/23 00:28:30;;;;;;;8.05;3.58;;;8.90;65.60;;;;;;5075284;28;20200;-65
2021/10/23 00:30:58;;;;;;;4.50;2.97;;;8.90;66.00;;;;;;5074855;28;20201;-65
2021/10/23 00:33:30;;;;;;;5.82;2.92;;;8.90;66.00;;;;;;5075200;28;20190;-64
2021/10/23 00:35:58;;;;;;;6.35;3.58;;;8.90;65.60;;;;;;5074628;28;20194;-66
2021/10/23 00:38:25;;;;;;;8.95;3.75;;;8.90;65.50;;;;;;5070961;28;20545;-64
2021/10/23 00:40:52;;;;;;;7.20;3.45;;;8.90;65.10;;;;;;5073576;28;20890;-64
2021/10/23 00:43:19;;;;;;;5.40;3.53;;;8.80;65.00;;;;;;5074012;28;20225;-65
2021/10/23 00:45:47;;;;;;;9.68;4.45;;;8.80;64.80;;;;;;5073458;28;20182;-64
2021/10/23 00:48:14;;;;;;;5.45;4.45;;;8.80;64.70;;;;;;5073897;28;20201;-65
2021/10/23 00:50:42;;;;;;;8.07;3.72;;;8.70;64.50;;;;;;5073273;28;20184;-65
2021/10/23 00:53:11;;;;;;;4.15;3.05;;;8.70;64.40;;;;;;5073376;28;20196;-64
2021/10/23 00:55:40;;;;;;;8.10;3.00;;;8.60;64.90;;;;;;5073969;28;20251;-65
2021/10/23 00:58:09;;;;;;;6.05;3.75;;;8.60;64.50;;;;;;5073528;28;20218;-64
2021/10/23 01:00:36;;;;;;;5.85;4.10;;;8.60;64.60;;;;;;5074027;28;20599;-64
2021/10/23 01:03:04;;;;;;;4.70;3.35;;;8.50;64.40;;;;;;5073181;28;20224;-64
2021/10/23 01:05:31;;;;;;;6.30;4.10;;;8.40;64.60;;;;;;5073526;28;20663;-64
2021/10/23 01:08:00;;;;;;;7.70;3.65;;;8.40;64.60;;;;;;5072266;28;20560;-64
2021/10/23 01:10:29;;;;;;;5.88;3.40;;;8.30;64.60;;;;;;5072844;28;20213;-65
2021/10/23 01:12:58;;;;;;;4.95;3.50;;;8.30;64.90;;;;;;5073246;28;20267;-64
2021/10/23 01:15:27;;;;;;;5.75;4.10;;;8.30;65.10;;;;;;5073817;28;20204;-64
2021/10/23 01:17:56;;;;;;;6.63;3.70;;;8.20;65.70;;;;;;5073104;28;20327;-65
2021/10/23 01:20:26;;;;;;;6.85;3.95;;;8.20;64.80;;;;;;5073062;28;20224;-64
2021/10/23 01:22:56;;;;;;;5.80;3.65;;;8.10;65.10;;;;;;5072866;28;20820;-63
2021/10/23 01:25:28;;;;;;;7.97;3.90;;;8.10;64.80;;;;;;5073059;28;20554;-65
2021/10/23 01:27:58;;;;;;;9.45;6.05;;;8.00;64.90;;;;;;5073525;28;20193;-64
2021/10/23 01:30:25;;;;;;;10.13;5.47;;;7.90;65.40;;;;;;5072896;28;20178;-64
2021/10/23 01:32:53;;;;;;;7.30;4.63;;;7.80;65.60;;;;;;5073140;28;20312;-64
2021/10/23 01:35:25;;;;;;;5.63;4.20;;;7.70;66.10;;;;;;5072643;28;20247;-63
2021/10/23 01:37:54;;;;;;;8.93;3.10;;;7.60;66.20;;;;;;5073263;28;20190;-63
2021/10/23 01:40:24;;;;;;;6.75;3.63;;;7.50;66.60;;;;;;5072316;28;20189;-64
2021/10/23 01:42:51;;;;;;;5.70;3.55;;;7.50;66.80;;;;;;5072461;28;20221;-64
2021/10/23 01:45:19;;;;;;;7.60;3.47;;;7.40;66.60;;;;;;5073275;28;20777;-64
2021/10/23 01:47:46;;;;;;;5.43;3.20;;;7.40;66.70;;;;;;5072657;28;20197;-64
2021/10/23 01:50:19;;;;;;;6.88;3.08;;;7.30;66.90;;;;;;5072823;28;20217;-64
2021/10/23 01:52:48;;;;;;;5.22;3.50;;;7.20;67.00;;;;;;5073216;28;20194;-64
2021/10/23 01:55:17;;;;;;;5.68;3.20;;;7.20;66.90;;;;;;5072898;28;20192;-65
2021/10/23 01:57:44;;;;;;;5.03;3.50;;;7.10;67.00;;;;;;5072942;28;20638;-65
2021/10/23 02:00:13;;;;;;;6.93;3.60;;;7.00;67.30;;;;;;5072946;28;20186;-64
2021/10/23 02:02:41;;;;;;;5.88;3.40;;;7.00;67.10;;;;;;5073403;28;20687;-64
2021/10/23 02:05:09;;;;;;;5.75;2.85;;;6.80;67.30;;;;;;5073841;28;20193;-64
2021/10/23 02:07:36;;;;;;;6.22;3.63;;;6.80;67.70;;;;;;5073184;28;20601;-68
2021/10/23 02:10:07;;;;;;;4.65;3.08;;;6.70;67.90;;;;;;5073579;28;20727;-64
2021/10/23 02:12:35;;;;;;;5.05;3.63;;;6.70;67.90;;;;;;5073422;28;20186;-64
2021/10/23 02:15:03;;;;;;;5.70;3.15;;;6.60;67.30;;;;;;5073317;28;20197;-65
2021/10/23 02:17:30;;;;;;;6.63;2.53;;;6.50;67.30;;;;;;5074186;28;20194;-64
2021/10/23 02:19:57;;;;;;;8.20;3.38;;;6.50;67.60;;;;;;5073102;28;20645;-64
2021/10/23 02:22:24;;;;;;;4.50;3.10;;;6.40;67.70;;;;;;5073362;28;20181;-64
2021/10/23 02:24:52;;;;;;;4.88;3.55;;;6.40;68.00;;;;;;5073389;28;20201;-64
2021/10/23 02:27:21;;;;;;;8.02;4.00;;;6.40;68.30;;;;;;5073034;28;20201;-64
2021/10/23 02:29:48;;;;;;;5.97;3.97;;;6.40;68.20;;;;;;5072993;28;21380;-64
2021/10/23 02:32:15;;;;;;;6.00;3.33;;;6.30;68.50;;;;;;5072597;28;20599;-65
2021/10/23 02:34:43;;;;;;;5.57;3.35;;;6.30;68.80;;;;;;5072871;28;20216;-64
2021/10/23 02:37:10;;;;;;;4.50;3.13;;;6.20;69.10;;;;;;5073189;28;20201;-64
2021/10/23 02:39:37;;;;;;;8.25;3.28;;;6.20;69.90;;;;;;5072855;28;20191;-64
2021/10/23 02:42:05;;;;;;;5.57;3.35;;;6.10;70.10;;;;;;5073352;28;20193;-64
2021/10/23 02:44:34;;;;;;;6.32;3.08;;;6.10;69.80;;;;;;5072491;28;20205;-64
2021/10/23 02:47:01;;;;;;;5.85;2.90;;;6.10;70.10;;;;;;5072140;28;20185;-65
2021/10/23 02:49:29;;;;;;;4.13;2.97;;;6.00;70.70;;;;;;5073095;28;20201;-65
2021/10/23 02:51:56;;;;;;;4.70;2.42;;;6.00;71.00;;;;;;5072489;28;20194;-64
2021/10/23 02:54:27;;;;;;;3.97;2.55;;;6.00;71.30;;;;;;5072728;28;20200;-64
2021/10/23 02:56:54;;;;;;;5.20;3.33;;;6.10;71.40;;;;;;5072594;28;20702;-67
2021/10/23 02:59:21;;;;;;;5.53;3.65;;;6.10;70.70;;;;;;5072314;28;20186;-64
2021/10/23 03:01:50;;;;;;;4.97;2.97;;;6.00;69.20;;;;;;5072769;28;20189;-64
2021/10/23 03:04:17;;;;;;;3.63;2.85;;;6.00;69.30;;;;;;5072706;28;20263;-64
2021/10/23 03:06:45;;;;;;;8.52;3.53;;;5.90;69.40;;;;;;5071863;28;20189;-64
2021/10/23 03:09:16;;;;;;;6.20;3.42;;;5.90;69.60;;;;;;5072168;28;20247;-64
2021/10/23 03:11:43;;;;;;;4.45;2.60;;;5.90;69.80;;;;;;5072031;28;20192;-65
2021/10/23 03:14:11;;;;;;;3.78;2.83;;;5.90;69.90;;;;;;5071105;28;20552;-64
2021/10/23 03:16:38;;;;;;;6.35;3.00;;;5.90;69.80;;;;;;5072559;28;20225;-64
2021/10/23 03:19:06;;;;;;;5.43;3.20;;;5.80;69.40;;;;;;5071479;28;20636;-65
2021/10/23 03:21:34;;;;;;;5.18;2.70;;;5.80;69.80;;;;;;5072349;28;20223;-64
2021/10/23 03:24:01;;;;;;;4.45;3.00;;;5.80;70.40;;;;;;5071765;28;20241;-65
2021/10/23 03:26:28;;;;;;;3.88;2.42;;;5.90;70.60;;;;;;5072237;28;20228;-64
2021/10/23 03:28:56;;;;;;;3.90;2.92;;;5.90;71.00;;;;;;5071846;28;20274;-64
2021/10/23 03:31:23;;;;;;;4.90;3.03;;;6.00;71.00;;;;;;5072349;28;20190;-64
2021/10/23 03:33:51;;;;;;;5.53;3.17;;;6.00;71.00;;;;;;5071936;28;20407;-64
2021/10/23 03:36:20;;;;;;;4.60;3.42;;;6.10;70.50;;;;;;5071744;28;20208;-64
2021/10/23 03:38:47;;;;;;;4.85;2.80;;;6.10;70.70;;;;;;5072258;28;20200;-64
2021/10/23 03:41:15;;;;;;;4.50;2.72;;;6.00;71.30;;;;;;5071862;28;20194;-65
2021/10/23 03:43:42;;;;;;;3.92;2.55;;;6.10;71.40;;;;;;5072172;28;20574;-64
2021/10/23 03:46:09;;;;;;;3.72;2.67;;;6.10;71.20;;;;;;5071462;28;20648;-64
2021/10/23 03:48:37;;;;;;;7.35;3.72;;;6.10;71.60;;;;;;5071814;28;20194;-64
2021/10/23 03:51:04;;;;;;;4.63;2.70;;;6.20;71.70;;;;;;5070978;28;20190;-64
2021/10/23 03:53:32;;;;;;;6.22;2.85;;;6.20;71.80;;;;;;5072085;28;20204;-64
2021/10/23 03:55:59;;;;;;;3.90;2.20;;;6.20;71.40;;;;;;5071223;28;20640;-64
2021/10/23 03:58:26;;;;;;;5.30;2.80;;;6.20;70.80;;;;;;5071960;28;20606;-64
2021/10/23 04:00:53;;;;;;;3.67;2.85;;;6.20;70.70;;;;;;5071191;28;20185;-64
2021/10/23 04:03:21;;;;;;;4.35;2.63;;;6.20;71.20;;;;;;5072284;28;20225;-64
2021/10/23 04:05:48;;;;;;;4.35;3.35;;;6.20;71.40;;;;;;5071243;28;20691;-64
2021/10/23 04:08:15;;;;;;;4.95;2.97;;;6.20;71.70;;;;;;5071654;28;20698;-64
2021/10/23 04:10:44;;;;;;;8.20;4.15;;;6.20;71.50;;;;;;5071676;28;20221;-64
2021/10/23 04:13:11;;;;;;;8.02;3.15;;;6.10;71.50;;;;;;5071630;28;20186;-64
2021/10/23 04:15:38;;;;;;;5.60;3.20;;;6.20;71.10;;;;;;5072052;28;20217;-64
2021/10/23 04:18:05;;;;;;;4.72;2.65;;;6.20;71.00;;;;;;5071527;28;20186;-64
2021/10/23 04:20:32;;;;;;;6.95;3.00;;;6.20;70.60;;;;;;5071631;28;20189;-64
2021/10/23 04:23:00;;;;;;;6.55;2.40;;;6.30;70.30;;;;;;5070843;28;20686;-64
2021/10/23 04:25:27;;;;;;;3.97;2.25;;;6.20;70.10;;;;;;5071942;28;20193;-64
2021/10/23 04:27:55;;;;;;;4.38;2.20;;;6.20;69.90;;;;;;5071521;28;20225;-64
2021/10/23 04:30:23;;;;;;;3.90;2.22;;;6.20;70.10;;;;;;5071778;28;20190;-64
2021/10/23 04:32:50;;;;;;;4.32;2.08;;;6.20;70.20;;;;;;5071174;28;20217;-64
2021/10/23 04:35:17;;;;;;;4.43;2.28;;;6.10;69.90;;;;;;5071934;28;20197;-64
2021/10/23 04:37:45;;;;;;;8.18;2.58;;;6.10;70.20;;;;;;5071178;28;20186;-64
2021/10/23 04:40:12;;;;;;;4.20;2.10;;;6.10;70.10;;;;;;5071364;28;20186;-64
2021/10/23 04:42:39;;;;;;;4.03;2.50;;;6.10;69.80;;;;;;5071406;28;20197;-64
2021/10/23 04:45:10;;;;;;;3.25;1.80;;;6.10;70.40;;;;;;5071444;28;20622;-64
2021/10/23 04:47:39;;;;;;;5.82;2.10;;;5.90;70.60;;;;;;5071435;28;20189;-64
2021/10/23 04:50:07;;;;;;;6.20;4.38;;;6.00;70.80;;;;;;5070829;28;20678;-65
2021/10/23 04:52:34;;;;;;;4.63;2.35;;;6.00;71.00;;;;;;5071281;28;20194;-65
2021/10/23 04:55:02;;;;;;;3.47;2.03;;;6.00;70.90;;;;;;5071775;28;20702;-64
2021/10/23 04:57:29;;;;;;;3.08;1.80;;;6.10;70.20;;;;;;5075187;28;20190;-64
2021/10/23 04:59:56;;;;;;;3.20;2.05;;;6.10;69.20;;;;;;5073914;28;20273;-64
2021/10/23 05:02:26;;;;;;;4.50;2.22;;;6.10;69.40;;;;;;5074415;28;20202;-64
2021/10/23 05:04:53;;;;;;;6.78;2.28;;;6.20;69.50;;;;;;5075056;28;20228;-64
2021/10/23 05:07:20;;;;;;;5.50;2.13;;;6.20;69.40;;;;;;5074515;28;20205;-64
2021/10/23 05:09:47;;;;;;;3.58;1.70;;;6.20;69.00;;;;;;5074665;28;21183;-64
2021/10/23 05:12:14;;;;;;;3.40;2.00;;;6.20;69.40;;;;;;5074084;28;20236;-64
2021/10/23 05:14:41;;;;;;;8.85;2.38;;;6.20;69.70;;;;;;5074932;28;20614;-64
2021/10/23 05:17:10;;;;;;;3.58;1.85;;;6.30;69.80;;;;;;5074999;28;20190;-64
2021/10/23 05:19:38;;;;;;;2.70;2.03;;;6.30;69.60;;;;;;5074861;28;20200;-64
2021/10/23 05:22:06;;;;;;;6.38;2.13;;;6.30;70.00;;;;;;5074295;28;20189;-64
2021/10/23 05:24:34;;;;;;;4.35;1.67;;;6.30;69.20;;;;;;5074756;28;20225;-64
2021/10/23 05:27:04;;;;;;;5.82;2.50;;;6.20;69.20;;;;;;5074363;28;20662;-64
2021/10/23 05:29:34;;;;;;;4.88;2.50;;;6.20;69.50;;;;;;5074086;28;20543;-64
2021/10/23 05:32:01;;;;;;;3.22;1.52;;;6.10;69.40;;;;;;5074243;28;20186;-65
2021/10/23 05:34:28;;;;;;;6.38;2.20;;;6.20;69.10;;;;;;5074572;28;20216;-65
2021/10/23 05:36:57;;;;;;;3.50;1.80;;;6.10;69.40;;;;;;5074371;28;20228;-64
2021/10/23 05:39:24;;;;;;;3.42;1.60;;;6.00;70.30;;;;;;5074566;28;20194;-64
2021/10/23 05:41:52;;;;;;;4.90;1.85;;;6.10;69.40;;;;;;5074470;28;20213;-64
2021/10/23 05:44:20;;;;;;;4.30;1.80;;;5.90;70.00;;;;;;5074034;28;20210;-64
2021/10/23 05:46:47;;;;;;;3.15;1.58;;;5.80;70.50;;;;;;5073757;28;20197;-64
2021/10/23 05:49:14;;;;;;;7.68;2.47;;;5.80;70.80;;;;;;5074102;28;20186;-64
2021/10/23 05:51:42;;;;;;;6.78;2.92;;;5.90;71.10;;;;;;5074168;28;20533;-64
2021/10/23 05:54:10;;;;;;;6.10;2.15;;;6.00;71.00;;;;;;5073728;28;20228;-65
2021/10/23 05:56:37;;;;;;;6.05;2.80;;;6.00;70.10;;;;;;5074082;28;20190;-64
2021/10/23 05:59:11;;;;;;;7.00;2.75;;;6.00;69.70;;;;;;5073567;28;20215;-66
2021/10/23 06:01:38;;;;;;;6.38;4.00;;;6.10;69.80;;;;;;5073854;28;20189;-64
2021/10/23 06:04:06;;;;;;;5.63;2.90;;;6.10;69.40;;;;;;5073729;28;20209;-64
2021/10/23 06:06:33;;;;;;;4.30;2.67;;;6.10;68.80;;;;;;5072815;28;20202;-65
2021/10/23 06:09:01;;;;;;;9.63;2.40;;;6.10;68.80;;;;;;5073373;28;20186;-64
2021/10/23 06:11:31;;;;;;;3.95;2.47;;;6.10;68.60;;;;;;5073980;28;20198;-65
2021/10/23 06:14:00;;;;;;;5.78;2.65;;;6.10;68.10;;;;;;5073573;28;20282;-64
2021/10/23 06:16:28;;;;;;;4.45;2.53;;;6.20;68.00;;;;;;5073468;28;20243;-65
2021/10/23 06:18:55;;;;;;;4.50;3.10;;;6.10;67.80;;;;;;5073700;28;20192;-63
2021/10/23 06:21:23;;;;;;;6.82;3.55;;;6.10;68.00;;;;;;5073840;28;20193;-64
2021/10/23 06:23:50;;;;;;;5.85;4.55;;;6.10;67.80;;;;;;5073564;28;20268;-64
2021/10/23 06:26:17;;;;;;;6.00;3.33;;;6.10;68.60;;;;;;5073030;28;20189;-64
2021/10/23 06:28:46;;;;;;;6.35;3.15;;;6.20;69.00;;;;;;5073542;28;20193;-64
2021/10/23 06:31:13;;;;;;;8.73;4.65;;;6.10;68.90;;;;;;5073418;28;20239;-64
2021/10/23 06:33:41;;;;;;;6.70;3.13;;;6.20;69.80;;;;;;5073135;28;20262;-64
2021/10/23 06:36:10;;;;;;;5.88;3.20;;;6.20;69.50;;;;;;5070575;28;20194;-64
2021/10/23 06:38:37;;;;;;;5.22;3.40;;;6.30;69.80;;;;;;5071663;28;20194;-64
2021/10/23 06:41:04;;;;;;;8.48;2.92;;;6.30;68.90;;;;;;5071698;28;20229;-64
2021/10/23 06:43:32;;;;;;;5.63;3.22;;;6.40;69.10;;;;;;5071905;28;20624;-64
2021/10/23 06:46:00;;;;;;;8.50;3.30;;;6.40;68.70;;;;;;5071888;28;20256;-65
2021/10/23 06:48:29;;;;;;;22.27;14.35;;;6.50;69.00;;;;;;5070262;28;20182;-64
2021/10/23 06:50:56;;;;;;;17.13;9.18;;;6.50;69.50;;;;;;5068703;28;20221;-64
2021/10/23 06:53:27;;;;;;;7.22;4.90;;;6.70;70.20;;;;;;5071810;28;20197;-64
2021/10/23 06:55:57;;;;;;;8.52;3.30;;;6.90;71.00;;;;;;5071109;28;20248;-65
2021/10/23 06:58:26;;;;;;;4.75;2.70;;;7.00;71.10;;;;;;5071507;28;20181;-64
2021/10/23 07:00:54;;;;;;;5.68;3.10;;;7.20;70.60;;;;;;5071397;28;20198;-64
2021/10/23 07:03:22;;;;;;;5.25;2.38;;;7.40;69.50;;;;;;5070564;28;20186;-64
2021/10/23 07:05:54;;;;;;;3.78;2.70;;;7.60;69.30;;;;;;5071038;28;20213;-64
2021/10/23 07:08:21;;;;;;;3.67;2.45;;;7.80;68.00;;;;;;5071134;28;20219;-64
2021/10/23 07:10:51;;;;;;;6.35;3.25;;;8.00;66.90;;;;;;5070759;28;20312;-66
2021/10/23 07:13:18;;;;;;;4.75;2.83;;;8.50;66.90;;;;;;5067032;28;20198;-65
2021/10/23 07:15:45;;;;;;;6.25;3.05;;;9.00;65.80;;;;;;5071208;28;20228;-64
2021/10/23 07:18:13;;;;;;;7.32;3.35;;;10.00;63.10;;;;;;5070588;28;20195;-64
2021/10/23 07:20:48;;;;;;;6.82;3.50;;;11.00;59.30;;;;;;5070647;28;20679;-65
2021/10/23 07:23:24;;;;;;;4.90;4.00;;;12.00;58.70;;;;;;5069074;28;20713;-64
2021/10/23 07:25:53;;;;;;;7.10;3.90;;;13.00;56.40;;;;;;5070395;28;20213;-65
2021/10/23 07:28:25;;;;;;;7.55;4.10;;;14.00;54.70;;;;;;5070813;28;20190;-64
2021/10/23 07:30:54;;;;;;;9.77;4.80;;;14.60;51.80;;;;;;5070643;28;20192;-68
2021/10/23 07:33:21;;;;;;;6.75;3.83;;;15.10;49.70;;;;;;5068803;28;20648;-66
2021/10/23 07:35:49;;;;;;;6.00;4.50;;;15.80;47.60;;;;;;5069844;28;20255;-65
2021/10/23 07:38:22;;;;;;;7.13;3.42;;;16.20;45.60;;;;;;5070473;28;20185;-65
2021/10/23 07:40:50;;;;;;;4.72;3.60;;;16.40;44.60;;;;;;5070155;28;20193;-65
2021/10/23 07:43:17;;;;;;;9.10;4.30;;;16.30;43.70;;;;;;5070547;28;20193;-65
2021/10/23 07:45:48;;;;;;;8.63;3.80;;;15.90;43.80;;;;;;5070935;28;20618;-64
2021/10/23 07:48:16;;;;;;;8.10;3.30;;;15.50;45.40;;;;;;5070767;28;20251;-65
2021/10/23 07:50:44;;;;;;;7.07;3.67;;;15.20;45.10;;;;;;5070894;28;20442;-65
2021/10/23 07:53:13;;;;;;;7.47;4.15;;;14.80;44.20;;;;;;5070953;28;20312;-64
2021/10/23 07:55:40;;;;;;;5.22;3.45;;;14.30;46.40;;;;;;5070849;28;20216;-66
2021/10/23 07:58:08;;;;;;;7.20;3.88;;;14.10;48.00;;;;;;5070394;28;20189;-65
2021/10/23 08:00:40;;;;;;;7.40;4.13;;;14.00;48.20;;;;;;5070943;28;20235;-65
2021/10/23 08:03:08;;;;;;;7.22;4.78;;;13.90;48.70;;;;;;5069419;28;20211;-65
2021/10/23 08:05:37;;;;;;;8.25;5.15;;;13.90;49.50;;;;;;5070150;28;20213;-64
2021/10/23 08:08:06;;;;;;;5.60;3.00;;;14.00;49.10;;;;;;5070429;28;20285;-65
2021/10/23 08:10:36;;;;;;;3.83;3.13;;;14.20;49.40;;;;;;5070384;28;20221;-64
2021/10/23 08:13:05;;;;;;;4.73;3.57;;;14.60;50.00;;;;;;5069841;28;20539;-66
2021/10/23 08:15:33;;;;;;;8.90;4.80;;;15.20;49.80;;;;;;5069953;28;20527;-64
2021/10/23 08:18:02;;;;;;;7.17;5.90;;;17.50;48.30;;;;;;5069715;28;20436;-64
2021/10/23 08:20:30;;;;;;;6.53;3.30;;;20.10;43.90;;;;;;5070418;28;20443;-66
2021/10/23 08:22:58;;;;;;;5.40;3.50;;;22.00;38.80;;;;;;5066462;28;20841;-65
2021/10/23 08:25:25;;;;;;;5.47;3.90;;;24.20;34.90;;;;;;5070795;28;21292;-65
2021/10/23 08:27:54;;;;;;;7.07;3.50;;;26.20;31.30;;;;;;5069413;28;20437;-65
2021/10/23 08:30:21;;;;;;;5.80;3.43;;;27.70;27.50;;;;;;5070639;28;20444;-65
2021/10/23 08:32:50;;;;;;;5.33;3.23;;;29.00;25.90;;;;;;5074441;28;20440;-65
2021/10/23 08:35:19;;;;;;;5.37;3.43;;;30.30;23.90;;;;;;5073628;28;20439;-66
2021/10/23 08:37:48;;;;;;;5.63;3.03;;;31.40;22.20;;;;;;5072744;28;20444;-66
2021/10/23 08:40:15;;;;;;;5.13;3.03;;;32.40;21.00;;;;;;5072963;28;20857;-66
2021/10/23 08:42:53;;;;;;;5.33;4.10;;;33.30;19.90;;;;;;5072723;28;20440;-66
2021/10/23 08:45:20;;;;;;;5.40;3.57;;;34.40;18.90;;;;;;5072885;28;20475;-65
2021/10/23 08:47:48;;;;;;;4.93;3.43;;;35.20;17.70;;;;;;5073131;28;20448;-67
2021/10/23 08:50:17;;;;;;;5.70;2.57;;;36.00;17.10;;;;;;5073546;28;20890;-66
2021/10/23 08:52:46;;;;;;;4.13;2.83;;;36.50;15.80;;;;;;5073429;28;20443;-67
2021/10/23 08:55:15;;;;;;;5.40;3.30;;;37.10;15.60;;;;;;5070148;28;20519;-66
2021/10/23 08:57:44;;;;;;;5.00;2.67;;;37.70;15.00;;;;;;5072944;28;20432;-65
2021/10/23 09:00:14;;;;;;;6.07;2.27;;;38.00;14.60;;;;;;5073474;28;20440;-65
2021/10/23 09:02:41;;;;;;;4.37;2.80;;;38.20;13.30;;;;;;5073706;28;20866;-65
2021/10/23 09:05:09;;;;;;;6.40;2.83;;;38.20;13.60;;;;;;5073253;28;20484;-66
2021/10/23 09:07:43;;;;;;;6.83;2.63;;;38.50;13.30;;;;;;5073197;28;20854;-64
2021/10/23 09:10:10;;;;;;;3.67;2.60;;;39.20;13.50;;;;;;5066331;28;20455;-66
2021/10/23 09:12:39;;;;;;;4.67;2.07;;;39.80;12.10;;;;;;5073188;28;20452;-64
2021/10/23 09:15:10;;;;;;;6.40;2.03;;;40.40;12.00;;;;;;5073105;28;20460;-64
2021/10/23 09:17:40;;;;;;;5.20;2.17;;;41.10;11.90;;;;;;5073593;28;20432;-64
2021/10/23 09:20:12;;;;;;;4.73;2.43;;;41.90;10.90;;;;;;5073675;28;20443;-64
2021/10/23 09:22:47;;;;;;;5.30;1.90;;;42.50;11.00;;;;;;5072399;28;20432;-65
2021/10/23 09:25:23;;;;;;;4.20;1.67;;;43.00;9.80;;;;;;5069944;28;20475;-66
2021/10/23 09:27:54;;;;;;;3.90;1.87;;;42.90;8.90;;;;;;5072676;28;20973;-64
2021/10/23 09:30:31;;;;;;;3.27;1.57;;;42.80;7.80;;;;;;5069212;28;20505;-68
2021/10/23 09:33:03;;;;;;;2.53;1.03;;;42.90;8.40;;;;;;5072067;28;20475;-64
2021/10/23 09:35:31;;;;;;;3.20;1.33;;;43.50;8.00;;;;;;5072814;28;20537;-64
2021/10/23 09:38:00;;;;;;;3.80;1.20;;;43.70;8.60;;;;;;5073027;28;20451;-64
2021/10/23 09:40:29;;;;;;;3.27;1.17;;;44.10;7.60;;;;;;5072825;28;20440;-64
2021/10/23 09:43:11;;;;;;;3.23;1.33;;;44.50;7.90;;;;;;5072707;28;20432;-64
2021/10/23 09:46:00;;;;;;;3.53;1.63;;;44.80;8.00;;;;;;5072741;28;20436;-64
2021/10/23 09:48:31;;;;;;;4.28;2.28;;;45.30;7.20;;;;;;5071889;28;20449;-65
2021/10/23 09:51:14;;;;;;;2.73;1.03;;;45.80;7.70;;;;;;5072384;28;20200;-64
2021/10/23 09:53:41;;;;;;;3.73;1.40;;;46.20;6.60;;;;;;5072968;28;20443;-64
2021/10/23 09:56:12;;;;;;;3.07;1.60;;;46.20;6.50;;;;;;5071928;28;20826;-64
2021/10/23 09:58:51;;;;;;;4.83;1.50;;;45.80;6.50;;;;;;5072913;28;20440;-69
2021/10/23 10:01:18;;;;;;;4.00;1.40;;;46.00;6.20;;;;;;5072033;28;20486;-66
2021/10/23 10:03:47;;;;;;;5.83;1.50;;;46.30;6.30;;;;;;5072034;28;20432;-66
2021/10/23 10:06:15;;;;;;;4.83;1.30;;;46.60;6.40;;;;;;5072753;28;20444;-66
2021/10/23 10:08:42;;;;;;;3.83;2.73;;;46.40;5.40;;;;;;5068132;28;20509;-66
2021/10/23 10:11:13;;;;;;;2.27;1.00;;;46.20;5.90;;;;;;5071095;28;20471;-66
2021/10/23 10:13:41;;;;;;;2.37;1.20;;;46.30;5.60;;;;;;5071321;28;20436;-66
2021/10/23 10:16:11;;;;;;;3.00;1.30;;;46.30;5.90;;;;;;5069289;28;20487;-65
2021/10/23 10:18:41;;;;;;;6.00;1.47;;;46.60;5.30;;;;;;5070492;28;20435;-66
2021/10/23 10:21:11;;;;;;;3.40;0.90;;;46.40;5.00;;;;;;5070589;28;20471;-66
2021/10/23 10:23:40;;;;;;;5.97;1.13;;;46.20;5.40;;;;;;5070830;28;20610;-66
2021/10/23 10:26:27;;;;;;;3.60;1.70;;;46.00;5.20;;;;;;5070855;28;20521;-66
2021/10/23 10:29:26;;;;;;;3.10;1.43;;;46.70;6.20;;;;;;5070550;28;20474;-67
2021/10/23 10:31:57;;;;;;;3.20;1.10;;;47.60;5.90;;;;;;5070882;28;20562;-66
2021/10/23 10:35:13;;;;;;;3.60;2.40;;;48.20;5.50;;;;;;5070726;28;20546;-66
2021/10/23 10:38:04;;;;;;;3.40;1.37;;;48.80;5.00;;;;;;5070526;28;20844;-66
2021/10/23 10:40:57;;;;;;;6.47;1.40;;;49.00;5.10;;;;;;5070738;28;20440;-69
2021/10/23 10:43:28;;;;;;;2.60;1.37;;;49.20;4.60;;;;;;5070113;28;20436;-67
2021/10/23 10:46:03;;;;;;;2.40;1.13;;;49.50;4.80;;;;;;5070106;28;20463;-67
2021/10/23 10:48:40;;;;;;;2.70;1.40;;;49.60;4.70;;;;;;5070532;28;20436;-68
2021/10/23 10:51:19;;;;;;;2.13;1.00;;;49.80;4.60;;;;;;5070286;28;20450;-66
2021/10/23 10:54:08;;;;;;;6.63;1.20;;;49.80;4.40;;;;;;5069539;28;20436;-66
2021/10/23 10:56:49;;;;;;;2.50;1.20;;;49.60;4.60;;;;;;5069839;28;20484;-69
2021/10/23 10:59:49;;;;;;;4.07;1.00;;;49.50;4.50;;;;;;5068245;28;20435;-65
2021/10/23 11:02:34;;;;;;;3.63;1.20;;;49.50;4.30;;;;;;5068923;28;20432;-66
2021/10/23 11:05:18;;;;;;;3.03;1.33;;;49.20;4.40;;;;;;5068185;28;20821;-67
2021/10/23 11:08:18;;;;;;;3.50;1.30;;;49.20;4.50;;;;;;5069849;28;20938;-66
2021/10/23 11:11:00;;;;;;;2.73;1.17;;;49.40;4.40;;;;;;5069950;28;20495;-65
2021/10/23 11:13:41;;;;;;;2.27;1.10;;;49.30;4.40;;;;;;5066602;28;20455;-65
2021/10/23 11:16:24;;;;;;;4.20;1.10;;;48.80;4.00;;;;;;5070220;28;20479;-65
2021/10/23 11:18:58;;;;;;;2.37;1.00;;;48.90;4.50;;;;;;5067814;28;20431;-65
2021/10/23 11:21:27;;;;;;;2.27;0.87;;;48.90;4.00;;;;;;5067054;28;20436;-66
2021/10/23 11:23:57;;;;;;;2.43;1.00;;;48.70;3.80;;;;;;5064621;28;21004;-66
2021/10/23 11:26:27;;;;;;;2.53;1.13;;;48.60;3.90;;;;;;5069581;28;20443;-65
2021/10/23 11:28:56;;;;;;;2.70;1.50;;;48.60;3.80;;;;;;5070060;28;20501;-65
2021/10/23 11:31:24;;;;;;;2.23;1.10;;;48.60;4.00;;;;;;5065252;28;20440;-64
2021/10/23 11:33:52;;;;;;;2.70;1.17;;;48.80;4.00;;;;;;5068650;28;20432;-65
2021/10/23 11:36:20;;;;;;;2.60;0.90;;;48.50;4.00;;;;;;5069930;28;20487;-65
2021/10/23 11:38:55;;;;;;;2.20;0.93;;;48.30;4.10;;;;;;5069257;28;20926;-64
2021/10/23 11:41:26;;;;;;;3.20;1.10;;;47.90;3.90;;;;;;5066795;28;20440;-64
2021/10/23 11:44:09;;;;;;;2.73;1.60;;;47.80;4.00;;;;;;5068501;28;20473;-64
2021/10/23 11:46:41;;;;;;;2.83;1.40;;;47.80;4.00;;;;;;5067700;28;20957;-65
2021/10/23 11:49:08;;;;;;;4.20;1.63;;;47.50;4.30;;;;;;5068828;28;20922;-65
2021/10/23 11:51:36;;;;;;;2.83;1.40;;;47.60;4.10;;;;;;5070226;28;20908;-64
2021/10/23 11:54:05;;;;;;;3.47;1.20;;;47.60;4.00;;;;;;5069579;28;20527;-66
2021/10/23 11:56:34;;;;;;;3.30;1.33;;;47.60;4.20;;;;;;5069300;28;20522;-65
2021/10/23 11:59:01;;;;;;;2.80;1.23;;;47.50;4.40;;;;;;5068504;28;20436;-65
2021/10/23 12:01:31;;;;;;;2.60;1.10;;;47.30;4.50;;;;;;5069480;28;20432;-64
2021/10/23 12:04:01;;;;;;;6.70;1.50;;;47.30;4.50;;;;;;5069277;28;20440;-64
2021/10/23 12:06:36;;;;;;;3.33;1.77;;;47.40;4.20;;;;;;5071290;28;20439;-65
2021/10/23 12:09:18;;;;;;;2.47;1.20;;;47.60;4.20;;;;;;5072787;28;20853;-67
2021/10/23 12:12:02;;;;;;;2.00;1.13;;;47.40;4.30;;;;;;5068383;28;20496;-65
2021/10/23 12:14:29;;;;;;;3.03;1.13;;;47.40;4.20;;;;;;5072703;28;20888;-66
2021/10/23 12:16:59;;;;;;;2.60;1.10;;;47.20;4.60;;;;;;5072658;28;20476;-66
2021/10/23 12:19:35;;;;;;;2.13;1.00;;;47.00;4.20;;;;;;5073178;28;21378;-64
2021/10/23 12:22:09;;;;;;;2.37;1.07;;;46.90;4.40;;;;;;5072181;28;20507;-66
2021/10/23 12:24:38;;;;;;;4.03;1.20;;;46.70;4.20;;;;;;5069462;28;20435;-64
2021/10/23 12:27:21;;;;;;;3.37;1.30;;;46.50;4.60;;;;;;5072485;28;20519;-64
2021/10/23 12:29:50;;;;;;;2.27;1.10;;;46.30;4.30;;;;;;5069149;28;20798;-64
2021/10/23 12:32:19;;;;;;;2.87;1.40;;;46.00;4.50;;;;;;5073015;28;20496;-64
2021/10/23 12:34:59;;;;;;;3.50;1.13;;;45.80;4.60;;;;;;5073658;28;20490;-64
2021/10/23 12:37:34;;;;;;;2.43;1.13;;;45.20;4.50;;;;;;5074696;28;20485;-64
2021/10/23 12:40:04;;;;;;;3.40;1.00;;;44.40;4.50;;;;;;5074327;28;20431;-64
2021/10/23 12:42:34;;;;;;;3.33;1.47;;;43.90;5.80;;;;;;5074736;28;20530;-64
2021/10/23 12:45:03;;;;;;;2.63;1.37;;;43.60;4.90;;;;;;5073971;28;20431;-64
2021/10/23 12:47:31;;;;;;;3.67;1.30;;;43.10;4.60;;;;;;5074802;28;20439;-64
2021/10/23 12:49:59;;;;;;;2.77;0.90;;;42.30;5.30;;;;;;5069184;28;20443;-64
2021/10/23 12:52:26;;;;;;;2.93;1.53;;;41.90;5.30;;;;;;5072424;28;20446;-64
2021/10/23 12:54:53;;;;;;;3.07;1.47;;;41.30;5.80;;;;;;5072095;28;20461;-65
2021/10/23 12:57:21;;;;;;;2.07;0.87;;;39.80;6.50;;;;;;5070562;28;20486;-65
2021/10/23 12:59:49;;;;;;;2.60;1.30;;;38.50;6.70;;;;;;5072757;28;20447;-64
2021/10/23 13:02:16;;;;;;;4.23;1.10;;;36.80;7.10;;;;;;5072872;28;20432;-63
2021/10/23 13:04:44;;;;;;;2.47;1.07;;;35.70;7.40;;;;;;5073171;28;20432;-63
2021/10/23 13:07:11;;;;;;;4.37;1.43;;;34.70;7.70;;;;;;5072280;28;20436;-63
2021/10/23 13:09:38;;;;;;;2.70;1.10;;;33.80;9.10;;;;;;5073381;28;20550;-64